Lisbonense — CSGA6 — position and weather

sailwx.info

Track history (hours):
 
Tides and Currents Weather Stations Pressure Air Temp Water Temp Dewpoint Dewpoint Depression Visibility Wind Speed Wind Dir Waves Ship Positions

Lisbonense

Last reported at 2017-Nov-23 22:24 UTC. Time now 2017-Nov-24 02:08 UTC.
Position N 38°41' W 009°12'.

Length 47 m.

Type: Ship. MMSI: 263702260.

Date/timePositionNaut miles runAvg speedWind from/ knotsBaromVisibWave heightAir tempDewpointWater temp
2017-Nov-23 22:24N 38°41' W 009°12'1 1.9
2017-Nov-23 21:51N 38°42' W 009°12'2 5.3
2017-Nov-23 21:29N 38°40' W 009°14'2 3.1
2017-Nov-23 20:52N 38°42' W 009°12'2 3.5
2017-Nov-23 20:19N 38°40' W 009°14'0 0.3
2017-Nov-23 19:50N 38°41' W 009°14'2 4.8
2017-Nov-23 19:26N 38°42' W 009°12'2 4.1
2017-Nov-23 18:58N 38°40' W 009°14'2 3.2
2017-Nov-23 18:22N 38°42' W 009°12'2 4.8
2017-Nov-23 17:58N 38°40' W 009°14'2 3.7
2017-Nov-23 17:27N 38°42' W 009°12'2 4.1
2017-Nov-23 16:59N 38°40' W 009°14'2 3.6
2017-Nov-23 16:27N 38°42' W 009°12'2 3.4
2017-Nov-23 15:54N 38°40' W 009°14'2 4.6
2017-Nov-23 15:28N 38°42' W 009°12'1 1.4
2017-Nov-23 14:45N 38°41' W 009°12'0 0.0
2017-Nov-23 13:59N 38°41' W 009°12'0 0.0
2017-Nov-23 13:14N 38°41' W 009°12'1 3.9
2017-Nov-23 12:56N 38°40' W 009°14'2 3.4
2017-Nov-23 12:24N 38°41' W 009°12'2 4.5
2017-Nov-23 11:59N 38°40' W 009°14'2 4.0
2017-Nov-23 11:30N 38°42' W 009°12'2 2.9
2017-Nov-23 10:50N 38°40' W 009°14'0 0.0
2017-Nov-23 10:26N 38°40' W 009°14'2 2.9
2017-Nov-23 09:50N 38°41' W 009°12'2 4.0
2017-Nov-23 09:24N 38°40' W 009°14'2 3.8
2017-Nov-23 08:54N 38°42' W 009°12'2 3.8
2017-Nov-23 08:24N 38°40' W 009°14'2 4.7
2017-Nov-23 08:00N 38°42' W 009°12'2 3.2
2017-Nov-23 07:24N 38°40' W 009°14'2 4.8
2017-Nov-23 07:00N 38°42' W 009°12'1 1.9
2017-Nov-23 06:26N 38°41' W 009°12'0 0.0
2017-Nov-23 05:56N 38°41' W 009°12'0 0.0
2017-Nov-22 22:32N 38°41' W 009°12'0 0.0
2017-Nov-22 22:22N 38°41' W 009°12'1 1.6
2017-Nov-22 22:00N 38°41' W 009°12'3 1.4
2017-Nov-22 20:10N 38°41' W 009°09'1 3.7
2017-Nov-22 19:58N 38°41' W 009°10'2 4.8
2017-Nov-22 19:29N 38°41' W 009°12'  
2017-Nov-19 22:04N 38°41' W 009°12'0 0.0
2017-Nov-19 21:57N 38°41' W 009°12'1 2.1
2017-Nov-19 21:28N 38°42' W 009°12'2 3.9
2017-Nov-19 20:58N 38°40' W 009°14'0 0.0
2017-Nov-19 20:29N 38°40' W 009°14'2 3.3
2017-Nov-19 19:53N 38°42' W 009°12'2 3.7
2017-Nov-19 19:22N 38°40' W 009°14'0 0.1
2017-Nov-19 18:51N 38°41' W 009°14'2 4.2
2017-Nov-19 18:24N 38°42' W 009°12'2 4.6
2017-Nov-19 17:59N 38°40' W 009°14'2 3.7
2017-Nov-19 17:27N 38°42' W 009°12'2 4.1
2017-Nov-19 16:59N 38°40' W 009°14'2 3.3
2017-Nov-19 16:25N 38°42' W 009°12'2 4.6
2017-Nov-19 16:00N 38°40' W 009°14'2 3.8
2017-Nov-19 15:30N 38°42' W 009°12'1 1.4
2017-Nov-19 14:44N 38°41' W 009°12'0 0.0
2017-Nov-19 14:29N 38°41' W 009°12'1 2.0
2017-Nov-19 13:58N 38°42' W 009°12'2 3.8
2017-Nov-19 13:27N 38°40' W 009°14'2 3.7
2017-Nov-19 12:56N 38°42' W 009°12'2 3.6
2017-Nov-19 12:23N 38°40' W 009°14'2 3.9
2017-Nov-19 11:54N 38°42' W 009°12'2 3.7
2017-Nov-19 11:22N 38°40' W 009°14'2 4.0
2017-Nov-19 10:54N 38°42' W 009°12'2 2.9
2017-Nov-19 10:14N 38°40' W 009°14'0 0.0
2017-Nov-19 09:53N 38°40' W 009°14'2 3.8
2017-Nov-19 09:22N 38°42' W 009°12'2 3.7
2017-Nov-19 08:51N 38°40' W 009°14'1 2.3
2017-Nov-19 08:21N 38°41' W 009°13'1 1.4
2017-Nov-19 07:55N 38°41' W 009°12'0 0.0
2017-Nov-18 22:06N 38°41' W 009°12'0 0.0
2017-Nov-18 22:00N 38°41' W 009°12'1 2.0
2017-Nov-18 21:28N 38°42' W 009°12'2 4.0
2017-Nov-18 20:59N 38°40' W 009°14'0 0.0
2017-Nov-18 20:29N 38°40' W 009°14'2 3.7
2017-Nov-18 19:58N 38°42' W 009°12'2 4.0
2017-Nov-18 19:29N 38°40' W 009°14'0 0.0
2017-Nov-18 18:56N 38°40' W 009°14'2 3.8
2017-Nov-18 18:26N 38°42' W 009°12'2 4.1
2017-Nov-18 17:58N 38°40' W 009°14'2 3.9
2017-Nov-18 17:28N 38°42' W 009°12'2 4.1
2017-Nov-18 17:00N 38°40' W 009°14'2 3.7
2017-Nov-18 16:28N 38°42' W 009°12'2 3.9
2017-Nov-18 15:59N 38°40' W 009°14'2 3.2
2017-Nov-18 15:26N 38°42' W 009°12'1 1.9
2017-Nov-18 14:58N 38°41' W 009°12'0 0.0
2017-Nov-18 14:29N 38°41' W 009°12'1 2.2
2017-Nov-18 14:00N 38°42' W 009°12'2 3.6
2017-Nov-18 13:28N 38°40' W 009°14'2 3.4
2017-Nov-18 12:55N 38°42' W 009°12'2 3.7
2017-Nov-18 12:24N 38°40' W 009°14'2 4.3
2017-Nov-18 11:57N 38°42' W 009°12'2 3.6
2017-Nov-18 11:25N 38°40' W 009°14'0 0.0
2017-Nov-18 10:55N 38°40' W 009°14'2 4.4
2017-Nov-18 10:29N 38°42' W 009°12'2 3.3
2017-Nov-18 09:54N 38°40' W 009°14'2 3.8
2017-Nov-18 09:24N 38°42' W 009°12'2 4.0
2017-Nov-18 08:55N 38°40' W 009°14'2 3.2
2017-Nov-18 08:19N 38°42' W 009°12'2 4.0
2017-Nov-18 07:50N 38°40' W 009°14'2 5.3
2017-Nov-18 07:28N 38°42' W 009°12'1 1.9
2017-Nov-18 06:55N 38°41' W 009°12'0 0.0
2017-Nov-17 22:40N 38°41' W 009°12'0 0.0
2017-Nov-17 22:30N 38°41' W 009°12'1 1.7
2017-Nov-17 21:53N 38°42' W 009°12'2 5.0
2017-Nov-17 21:30N 38°40' W 009°14'2 3.4
2017-Nov-17 20:56N 38°42' W 009°12'2 4.3
2017-Nov-17 20:29N 38°40' W 009°14'0 0.0
2017-Nov-17 19:53N 38°41' W 009°14'2 4.0
2017-Nov-17 19:23N 38°42' W 009°12'2 3.0
2017-Nov-17 18:49N 38°41' W 009°14'2 4.1
2017-Nov-17 18:24N 38°42' W 009°12'2 4.6
2017-Nov-17 17:58N 38°40' W 009°14'2 3.3
2017-Nov-17 17:24N 38°42' W 009°12'2 4.0
2017-Nov-17 16:55N 38°40' W 009°14'2 3.6
2017-Nov-17 16:23N 38°42' W 009°12'2 4.3
2017-Nov-17 15:56N 38°40' W 009°14'2 4.5
2017-Nov-17 15:30N 38°42' W 009°12'1 1.4
2017-Nov-17 14:46N 38°41' W 009°12'0 0.0
2017-Nov-17 14:28N 38°41' W 009°12'0 0.0
2017-Nov-17 13:59N 38°41' W 009°12'1 1.9
2017-Nov-17 13:27N 38°42' W 009°12'2 3.9
2017-Nov-17 12:57N 38°40' W 009°14'2 3.9
2017-Nov-17 12:28N 38°42' W 009°12'2 3.5
2017-Nov-17 11:55N 38°40' W 009°14'2 2.4
2017-Nov-17 11:16N 38°41' W 009°12'2 5.1
2017-Nov-17 10:58N 38°40' W 009°14'0 0.0
2017-Nov-17 10:28N 38°40' W 009°14'2 3.4
2017-Nov-17 09:54N 38°42' W 009°12'2 3.1
2017-Nov-17 09:17N 38°40' W 009°14'2 4.5
2017-Nov-17 08:51N 38°42' W 009°12'2 3.7
2017-Nov-17 08:20N 38°40' W 009°14'2 3.7
2017-Nov-17 07:49N 38°42' W 009°12'2 4.2
2017-Nov-17 07:22N 38°40' W 009°14'2 4.9
2017-Nov-17 06:59N 38°42' W 009°12'1 2.0
2017-Nov-17 06:28N 38°41' W 009°12'0 0.0
2017-Nov-17 05:55N 38°41' W 009°12'0 0.0
2017-Nov-16 22:40N 38°41' W 009°12'0 0.0
2017-Nov-16 22:28N 38°41' W 009°12'1 1.6
2017-Nov-16 21:48N 38°42' W 009°12'2 5.7
2017-Nov-16 21:28N 38°40' W 009°14'2 3.4
2017-Nov-16 20:54N 38°42' W 009°12'2 3.3
2017-Nov-16 20:20N 38°40' W 009°14'0 0.0
2017-Nov-16 19:59N 38°40' W 009°14'2 3.0
2017-Nov-16 19:20N 38°42' W 009°12'2 4.8
2017-Nov-16 18:56N 38°40' W 009°14'2 4.4
2017-Nov-16 18:30N 38°42' W 009°12'2 3.7
2017-Nov-16 17:58N 38°40' W 009°14'2 3.5
2017-Nov-16 17:26N 38°42' W 009°12'2 4.0
2017-Nov-16 16:58N 38°40' W 009°14'2 3.8
2017-Nov-16 16:27N 38°42' W 009°12'2 3.5
2017-Nov-16 15:55N 38°40' W 009°14'2 4.6
2017-Nov-16 15:30N 38°42' W 009°12'1 1.5
2017-Nov-16 14:48N 38°41' W 009°12'0 0.0
2017-Nov-16 14:24N 38°41' W 009°12'0 0.0
2017-Nov-16 14:00N 38°41' W 009°12'1 1.7
2017-Nov-16 13:23N 38°42' W 009°12'2 3.7
2017-Nov-16 12:52N 38°40' W 009°14'2 4.8
2017-Nov-16 12:28N 38°42' W 009°12'2 3.4
2017-Nov-16 11:54N 38°40' W 009°14'2 3.6
2017-Nov-16 11:22N 38°42' W 009°12'2 4.4
2017-Nov-16 10:56N 38°40' W 009°14'0 0.0
2017-Nov-16 10:29N 38°40' W 009°14'2 3.6
2017-Nov-16 09:57N 38°42' W 009°12'2 4.1
2017-Nov-16 09:29N 38°40' W 009°14'2 2.8
2017-Nov-16 08:48N 38°42' W 009°12'2 4.5
2017-Nov-16 08:22N 38°40' W 009°14'2 4.5
2017-Nov-16 07:57N 38°42' W 009°12'2 3.8
2017-Nov-16 07:26N 38°40' W 009°14'2 4.1
2017-Nov-16 06:59N 38°42' W 009°12'1 1.9
2017-Nov-16 06:27N 38°41' W 009°12'0 0.0
2017-Nov-15 22:37N 38°41' W 009°12'0 0.0
2017-Nov-15 22:27N 38°41' W 009°12'1 1.9
2017-Nov-15 21:54N 38°42' W 009°12'2 4.3
2017-Nov-15 21:27N 38°40' W 009°14'2 4.0
2017-Nov-15 20:58N 38°42' W 009°12'2 3.9
2017-Nov-15 20:29N 38°40' W 009°14'0 0.0
2017-Nov-15 19:59N 38°40' W 009°14'2 3.0
2017-Nov-15 19:21N 38°42' W 009°12'2 4.4
2017-Nov-15 18:54N 38°40' W 009°14'2 3.6
2017-Nov-15 18:22N 38°42' W 009°12'2 5.2
2017-Nov-15 18:00N 38°40' W 009°14'2 3.7
2017-Nov-15 17:29N 38°42' W 009°12'2 3.2
2017-Nov-15 16:53N 38°40' W 009°14'2 5.1
2017-Nov-15 16:30N 38°42' W 009°12'2 3.1
2017-Nov-15 15:53N 38°40' W 009°14'2 4.9
2017-Nov-15 15:30N 38°42' W 009°12'1 1.4
2017-Nov-15 14:45N 38°41' W 009°12'0 0.0
2017-Nov-15 14:30N 38°41' W 009°12'0 0.0
2017-Nov-15 14:00N 38°41' W 009°12'1 1.6
2017-Nov-15 13:22N 38°42' W 009°12'2 4.2
2017-Nov-15 12:55N 38°40' W 009°14'2 3.8
2017-Nov-15 12:25N 38°42' W 009°12'2 3.6
2017-Nov-15 11:53N 38°40' W 009°14'2 4.0
2017-Nov-15 11:24N 38°42' W 009°12'2 4.4
2017-Nov-15 10:58N 38°40' W 009°14'0 0.0
2017-Nov-15 10:22N 38°40' W 009°14'2 4.0
2017-Nov-15 09:53N 38°42' W 009°12'2 4.7
2017-Nov-15 09:29N 38°40' W 009°14'2 3.4
2017-Nov-15 08:55N 38°42' W 009°12'2 4.6
2017-Nov-15 08:30N 38°40' W 009°14'2 3.0
2017-Nov-15 07:51N 38°42' W 009°12'1 2.5
2017-Nov-15 07:16N 38°41' W 009°13'1 2.9
2017-Nov-15 06:52N 38°42' W 009°12'1 1.4
2017-Nov-15 06:17N 38°41' W 009°12'0 0.0
2017-Nov-14 22:34N 38°41' W 009°12'0 0.1
2017-Nov-14 22:25N 38°41' W 009°12'1 1.8
2017-Nov-14 21:49N 38°42' W 009°12'2 4.9
2017-Nov-14 21:26N 38°40' W 009°14'2 3.4
2017-Nov-14 20:52N 38°42' W 009°12'2 5.0
2017-Nov-14 20:29N 38°40' W 009°14'0 0.0
2017-Nov-14 19:53N 38°40' W 009°14'2 4.1
2017-Nov-14 19:25N 38°42' W 009°12'2 3.7
2017-Nov-14 18:54N 38°40' W 009°14'2 4.9
2017-Nov-14 18:31N 38°42' W 009°12'2 3.2
2017-Nov-14 17:55N 38°40' W 009°14'2 4.4
2017-Nov-14 17:28N 38°42' W 009°12'2 3.5
2017-Nov-14 16:55N 38°40' W 009°14'2 3.2
2017-Nov-14 16:23N 38°42' W 009°12'3 0.6
2017-Nov-14 12:06N 38°41' W 009°09'1 6.6
2017-Nov-14 12:00N 38°42' W 009°08'1 0.6
2017-Nov-14 11:02N 38°42' W 009°09'0 1.0
2017-Nov-14 11:00N 38°42' W 009°09'0 0.1
2017-Nov-14 10:25N 38°42' W 009°09'2 5.6
2017-Nov-14 09:58N 38°42' W 009°12'2 3.4
2017-Nov-14 09:24N 38°40' W 009°14'2 4.9
2017-Nov-14 09:00N 38°42' W 009°12'2 2.9
2017-Nov-14 08:21N 38°40' W 009°14'2 4.7
2017-Nov-14 07:56N 38°42' W 009°12'2 4.3
2017-Nov-14 07:29N 38°40' W 009°14'2 3.7
2017-Nov-14 06:58N 38°42' W 009°12'1 2.3
2017-Nov-14 06:30N 38°41' W 009°12'0 0.0
2017-Nov-13 22:34N 38°41' W 009°12'0 0.0
2017-Nov-13 22:26N 38°41' W 009°12'  
Track history (hours):
 
Tides and Currents Weather Stations Pressure Air Temp Water Temp Dewpoint Dewpoint Depression Visibility Wind Speed Wind Dir Waves Ship Positions

Lisbonense

Last reported at 2017-Nov-23 22:24 UTC. Time now 2017-Nov-24 02:08 UTC.
Position N 38°41' W 009°12'.

Length 47 m.

Type: Ship. MMSI: 263702260.

Date/timePositionNaut miles runAvg speedWind from/ knotsBaromVisibWave heightAir tempDewpointWater temp
2017-Nov-23 22:24N 38°41' W 009°12'1 1.9
2017-Nov-23 21:51N 38°42' W 009°12'2 5.3
2017-Nov-23 21:29N 38°40' W 009°14'2 3.1
2017-Nov-23 20:52N 38°42' W 009°12'2 3.5
2017-Nov-23 20:19N 38°40' W 009°14'0 0.3
2017-Nov-23 19:50N 38°41' W 009°14'2 4.8
2017-Nov-23 19:26N 38°42' W 009°12'2 4.1
2017-Nov-23 18:58N 38°40' W 009°14'2 3.2
2017-Nov-23 18:22N 38°42' W 009°12'2 4.8
2017-Nov-23 17:58N 38°40' W 009°14'2 3.7
2017-Nov-23 17:27N 38°42' W 009°12'2 4.1
2017-Nov-23 16:59N 38°40' W 009°14'2 3.6
2017-Nov-23 16:27N 38°42' W 009°12'2 3.4
2017-Nov-23 15:54N 38°40' W 009°14'2 4.6
2017-Nov-23 15:28N 38°42' W 009°12'1 1.4
2017-Nov-23 14:45N 38°41' W 009°12'0 0.0
2017-Nov-23 13:59N 38°41' W 009°12'0 0.0
2017-Nov-23 13:14N 38°41' W 009°12'1 3.9
2017-Nov-23 12:56N 38°40' W 009°14'2 3.4
2017-Nov-23 12:24N 38°41' W 009°12'2 4.5
2017-Nov-23 11:59N 38°40' W 009°14'2 4.0
2017-Nov-23 11:30N 38°42' W 009°12'2 2.9
2017-Nov-23 10:50N 38°40' W 009°14'0 0.0
2017-Nov-23 10:26N 38°40' W 009°14'2 2.9
2017-Nov-23 09:50N 38°41' W 009°12'2 4.0
2017-Nov-23 09:24N 38°40' W 009°14'2 3.8
2017-Nov-23 08:54N 38°42' W 009°12'2 3.8
2017-Nov-23 08:24N 38°40' W 009°14'2 4.7
2017-Nov-23 08:00N 38°42' W 009°12'2 3.2
2017-Nov-23 07:24N 38°40' W 009°14'2 4.8
2017-Nov-23 07:00N 38°42' W 009°12'1 1.9
2017-Nov-23 06:26N 38°41' W 009°12'0 0.0
2017-Nov-23 05:56N 38°41' W 009°12'0 0.0
2017-Nov-22 22:32N 38°41' W 009°12'0 0.0
2017-Nov-22 22:22N 38°41' W 009°12'1 1.6
2017-Nov-22 22:00N 38°41' W 009°12'3 1.4
2017-Nov-22 20:10N 38°41' W 009°09'1 3.7
2017-Nov-22 19:58N 38°41' W 009°10'2 4.8
2017-Nov-22 19:29N 38°41' W 009°12'  
2017-Nov-19 22:04N 38°41' W 009°12'0 0.0
2017-Nov-19 21:57N 38°41' W 009°12'1 2.1
2017-Nov-19 21:28N 38°42' W 009°12'2 3.9
2017-Nov-19 20:58N 38°40' W 009°14'0 0.0
2017-Nov-19 20:29N 38°40' W 009°14'2 3.3
2017-Nov-19 19:53N 38°42' W 009°12'2 3.7
2017-Nov-19 19:22N 38°40' W 009°14'0 0.1
2017-Nov-19 18:51N 38°41' W 009°14'2 4.2
2017-Nov-19 18:24N 38°42' W 009°12'2 4.6
2017-Nov-19 17:59N 38°40' W 009°14'2 3.7
2017-Nov-19 17:27N 38°42' W 009°12'2 4.1
2017-Nov-19 16:59N 38°40' W 009°14'2 3.3
2017-Nov-19 16:25N 38°42' W 009°12'2 4.6
2017-Nov-19 16:00N 38°40' W 009°14'2 3.8
2017-Nov-19 15:30N 38°42' W 009°12'1 1.4
2017-Nov-19 14:44N 38°41' W 009°12'0 0.0
2017-Nov-19 14:29N 38°41' W 009°12'1 2.0
2017-Nov-19 13:58N 38°42' W 009°12'2 3.8
2017-Nov-19 13:27N 38°40' W 009°14'2 3.7
2017-Nov-19 12:56N 38°42' W 009°12'2 3.6
2017-Nov-19 12:23N 38°40' W 009°14'2 3.9
2017-Nov-19 11:54N 38°42' W 009°12'2 3.7
2017-Nov-19 11:22N 38°40' W 009°14'2 4.0
2017-Nov-19 10:54N 38°42' W 009°12'2 2.9
2017-Nov-19 10:14N 38°40' W 009°14'0 0.0
2017-Nov-19 09:53N 38°40' W 009°14'2 3.8
2017-Nov-19 09:22N 38°42' W 009°12'2 3.7
2017-Nov-19 08:51N 38°40' W 009°14'1 2.3
2017-Nov-19 08:21N 38°41' W 009°13'1 1.4
2017-Nov-19 07:55N 38°41' W 009°12'0 0.0
2017-Nov-18 22:06N 38°41' W 009°12'0 0.0
2017-Nov-18 22:00N 38°41' W 009°12'1 2.0
2017-Nov-18 21:28N 38°42' W 009°12'2 4.0
2017-Nov-18 20:59N 38°40' W 009°14'0 0.0
2017-Nov-18 20:29N 38°40' W 009°14'2 3.7
2017-Nov-18 19:58N 38°42' W 009°12'2 4.0
2017-Nov-18 19:29N 38°40' W 009°14'0 0.0
2017-Nov-18 18:56N 38°40' W 009°14'2 3.8
2017-Nov-18 18:26N 38°42' W 009°12'2 4.1
2017-Nov-18 17:58N 38°40' W 009°14'2 3.9
2017-Nov-18 17:28N 38°42' W 009°12'2 4.1
2017-Nov-18 17:00N 38°40' W 009°14'2 3.7
2017-Nov-18 16:28N 38°42' W 009°12'2 3.9
2017-Nov-18 15:59N 38°40' W 009°14'2 3.2
2017-Nov-18 15:26N 38°42' W 009°12'1 1.9
2017-Nov-18 14:58N 38°41' W 009°12'0 0.0
2017-Nov-18 14:29N 38°41' W 009°12'1 2.2
2017-Nov-18 14:00N 38°42' W 009°12'2 3.6
2017-Nov-18 13:28N 38°40' W 009°14'2 3.4
2017-Nov-18 12:55N 38°42' W 009°12'2 3.7
2017-Nov-18 12:24N 38°40' W 009°14'2 4.3
2017-Nov-18 11:57N 38°42' W 009°12'2 3.6
2017-Nov-18 11:25N 38°40' W 009°14'0 0.0
2017-Nov-18 10:55N 38°40' W 009°14'2 4.4
2017-Nov-18 10:29N 38°42' W 009°12'2 3.3
2017-Nov-18 09:54N 38°40' W 009°14'2 3.8
2017-Nov-18 09:24N 38°42' W 009°12'2 4.0
2017-Nov-18 08:55N 38°40' W 009°14'2 3.2
2017-Nov-18 08:19N 38°42' W 009°12'2 4.0
2017-Nov-18 07:50N 38°40' W 009°14'2 5.3
2017-Nov-18 07:28N 38°42' W 009°12'1 1.9
2017-Nov-18 06:55N 38°41' W 009°12'0 0.0
2017-Nov-17 22:40N 38°41' W 009°12'0 0.0
2017-Nov-17 22:30N 38°41' W 009°12'1 1.7
2017-Nov-17 21:53N 38°42' W 009°12'2 5.0
2017-Nov-17 21:30N 38°40' W 009°14'2 3.4
2017-Nov-17 20:56N 38°42' W 009°12'2 4.3
2017-Nov-17 20:29N 38°40' W 009°14'0 0.0
2017-Nov-17 19:53N 38°41' W 009°14'2 4.0
2017-Nov-17 19:23N 38°42' W 009°12'2 3.0
2017-Nov-17 18:49N 38°41' W 009°14'2 4.1
2017-Nov-17 18:24N 38°42' W 009°12'2 4.6
2017-Nov-17 17:58N 38°40' W 009°14'2 3.3
2017-Nov-17 17:24N 38°42' W 009°12'2 4.0
2017-Nov-17 16:55N 38°40' W 009°14'2 3.6
2017-Nov-17 16:23N 38°42' W 009°12'2 4.3
2017-Nov-17 15:56N 38°40' W 009°14'2 4.5
2017-Nov-17 15:30N 38°42' W 009°12'1 1.4
2017-Nov-17 14:46N 38°41' W 009°12'0 0.0
2017-Nov-17 14:28N 38°41' W 009°12'0 0.0
2017-Nov-17 13:59N 38°41' W 009°12'1 1.9
2017-Nov-17 13:27N 38°42' W 009°12'2 3.9
2017-Nov-17 12:57N 38°40' W 009°14'2 3.9
2017-Nov-17 12:28N 38°42' W 009°12'2 3.5
2017-Nov-17 11:55N 38°40' W 009°14'2 2.4
2017-Nov-17 11:16N 38°41' W 009°12'2 5.1
2017-Nov-17 10:58N 38°40' W 009°14'0 0.0
2017-Nov-17 10:28N 38°40' W 009°14'2 3.4
2017-Nov-17 09:54N 38°42' W 009°12'2 3.1
2017-Nov-17 09:17N 38°40' W 009°14'2 4.5
2017-Nov-17 08:51N 38°42' W 009°12'2 3.7
2017-Nov-17 08:20N 38°40' W 009°14'2 3.7
2017-Nov-17 07:49N 38°42' W 009°12'2 4.2
2017-Nov-17 07:22N 38°40' W 009°14'2 4.9
2017-Nov-17 06:59N 38°42' W 009°12'1 2.0
2017-Nov-17 06:28N 38°41' W 009°12'0 0.0
2017-Nov-17 05:55N 38°41' W 009°12'0 0.0
2017-Nov-16 22:40N 38°41' W 009°12'0 0.0
2017-Nov-16 22:28N 38°41' W 009°12'1 1.6
2017-Nov-16 21:48N 38°42' W 009°12'2 5.7
2017-Nov-16 21:28N 38°40' W 009°14'2 3.4
2017-Nov-16 20:54N 38°42' W 009°12'2 3.3
2017-Nov-16 20:20N 38°40' W 009°14'0 0.0
2017-Nov-16 19:59N 38°40' W 009°14'2 3.0
2017-Nov-16 19:20N 38°42' W 009°12'2 4.8
2017-Nov-16 18:56N 38°40' W 009°14'2 4.4
2017-Nov-16 18:30N 38°42' W 009°12'2 3.7
2017-Nov-16 17:58N 38°40' W 009°14'2 3.5
2017-Nov-16 17:26N 38°42' W 009°12'2 4.0
2017-Nov-16 16:58N 38°40' W 009°14'2 3.8
2017-Nov-16 16:27N 38°42' W 009°12'2 3.5
2017-Nov-16 15:55N 38°40' W 009°14'2 4.6
2017-Nov-16 15:30N 38°42' W 009°12'1 1.5
2017-Nov-16 14:48N 38°41' W 009°12'0 0.0
2017-Nov-16 14:24N 38°41' W 009°12'0 0.0
2017-Nov-16 14:00N 38°41' W 009°12'1 1.7
2017-Nov-16 13:23N 38°42' W 009°12'2 3.7
2017-Nov-16 12:52N 38°40' W 009°14'2 4.8
2017-Nov-16 12:28N 38°42' W 009°12'2 3.4
2017-Nov-16 11:54N 38°40' W 009°14'2 3.6
2017-Nov-16 11:22N 38°42' W 009°12'2 4.4
2017-Nov-16 10:56N 38°40' W 009°14'0 0.0
2017-Nov-16 10:29N 38°40' W 009°14'2 3.6
2017-Nov-16 09:57N 38°42' W 009°12'2 4.1
2017-Nov-16 09:29N 38°40' W 009°14'2 2.8
2017-Nov-16 08:48N 38°42' W 009°12'2 4.5
2017-Nov-16 08:22N 38°40' W 009°14'2 4.5
2017-Nov-16 07:57N 38°42' W 009°12'2 3.8
2017-Nov-16 07:26N 38°40' W 009°14'2 4.1
2017-Nov-16 06:59N 38°42' W 009°12'1 1.9
2017-Nov-16 06:27N 38°41' W 009°12'0 0.0
2017-Nov-15 22:37N 38°41' W 009°12'0 0.0
2017-Nov-15 22:27N 38°41' W 009°12'1 1.9
2017-Nov-15 21:54N 38°42' W 009°12'2 4.3
2017-Nov-15 21:27N 38°40' W 009°14'2 4.0
2017-Nov-15 20:58N 38°42' W 009°12'2 3.9
2017-Nov-15 20:29N 38°40' W 009°14'0 0.0
2017-Nov-15 19:59N 38°40' W 009°14'2 3.0
2017-Nov-15 19:21N 38°42' W 009°12'2 4.4
2017-Nov-15 18:54N 38°40' W 009°14'2 3.6
2017-Nov-15 18:22N 38°42' W 009°12'2 5.2
2017-Nov-15 18:00N 38°40' W 009°14'2 3.7
2017-Nov-15 17:29N 38°42' W 009°12'2 3.2
2017-Nov-15 16:53N 38°40' W 009°14'2 5.1
2017-Nov-15 16:30N 38°42' W 009°12'2 3.1
2017-Nov-15 15:53N 38°40' W 009°14'2 4.9
2017-Nov-15 15:30N 38°42' W 009°12'1 1.4
2017-Nov-15 14:45N 38°41' W 009°12'0 0.0
2017-Nov-15 14:30N 38°41' W 009°12'0 0.0
2017-Nov-15 14:00N 38°41' W 009°12'1 1.6
2017-Nov-15 13:22N 38°42' W 009°12'2 4.2
2017-Nov-15 12:55N 38°40' W 009°14'2 3.8
2017-Nov-15 12:25N 38°42' W 009°12'2 3.6
2017-Nov-15 11:53N 38°40' W 009°14'2 4.0
2017-Nov-15 11:24N 38°42' W 009°12'2 4.4
2017-Nov-15 10:58N 38°40' W 009°14'0 0.0
2017-Nov-15 10:22N 38°40' W 009°14'2 4.0
2017-Nov-15 09:53N 38°42' W 009°12'2 4.7
2017-Nov-15 09:29N 38°40' W 009°14'2 3.4
2017-Nov-15 08:55N 38°42' W 009°12'2 4.6
2017-Nov-15 08:30N 38°40' W 009°14'2 3.0
2017-Nov-15 07:51N 38°42' W 009°12'1 2.5
2017-Nov-15 07:16N 38°41' W 009°13'1 2.9
2017-Nov-15 06:52N 38°42' W 009°12'1 1.4
2017-Nov-15 06:17N 38°41' W 009°12'0 0.0
2017-Nov-14 22:34N 38°41' W 009°12'0 0.1
2017-Nov-14 22:25N 38°41' W 009°12'1 1.8
2017-Nov-14 21:49N 38°42' W 009°12'2 4.9
2017-Nov-14 21:26N 38°40' W 009°14'2 3.4
2017-Nov-14 20:52N 38°42' W 009°12'2 5.0
2017-Nov-14 20:29N 38°40' W 009°14'0 0.0
2017-Nov-14 19:53N 38°40' W 009°14'2 4.1
2017-Nov-14 19:25N 38°42' W 009°12'2 3.7
2017-Nov-14 18:54N 38°40' W 009°14'2 4.9
2017-Nov-14 18:31N 38°42' W 009°12'2 3.2
2017-Nov-14 17:55N 38°40' W 009°14'2 4.4
2017-Nov-14 17:28N 38°42' W 009°12'2 3.5
2017-Nov-14 16:55N 38°40' W 009°14'2 3.2
2017-Nov-14 16:23N 38°42' W 009°12'3 0.6
2017-Nov-14 12:06N 38°41' W 009°09'1 6.6
2017-Nov-14 12:00N 38°42' W 009°08'1 0.6
2017-Nov-14 11:02N 38°42' W 009°09'0 1.0
2017-Nov-14 11:00N 38°42' W 009°09'0 0.1
2017-Nov-14 10:25N 38°42' W 009°09'2 5.6
2017-Nov-14 09:58N 38°42' W 009°12'2 3.4
2017-Nov-14 09:24N 38°40' W 009°14'2 4.9
2017-Nov-14 09:00N 38°42' W 009°12'2 2.9
2017-Nov-14 08:21N 38°40' W 009°14'2 4.7
2017-Nov-14 07:56N 38°42' W 009°12'2 4.3
2017-Nov-14 07:29N 38°40' W 009°14'2 3.7
2017-Nov-14 06:58N 38°42' W 009°12'1 2.3
2017-Nov-14 06:30N 38°41' W 009°12'0 0.0
2017-Nov-13 22:34N 38°41' W 009°12'0 0.0
2017-Nov-13 22:26N 38°41' W 009°12'  

Dump ship's entire track history